Time;durP1;ratioP1;P1;durP2;ratioP2;P2;SDS_P1;SDS_P2;PMS_P1;PMS_P2;Temp;Humidity;BMP_temperature;BMP_pressure;BME280_temperature;BME280_humidity;BME280_pressure;Samples;Min_cycle;Max_cycle;Signal;HPM_P1;HPM_P2
2021/06/02 00:02:20;;;;;;;3.52;1.85;;;;;;;11.63;57.47;100608.30;1790961;79;22287;-73
2021/06/02 00:04:51;;;;;;;4.00;2.03;;;;;;;11.64;57.45;100602.42;1779220;79;21166;-73
2021/06/02 00:07:21;;;;;;;5.25;2.25;;;;;;;11.63;57.57;100600.28;1765722;80;21400;-73
2021/06/02 00:09:48;;;;;;;4.78;2.20;;;;;;;11.63;57.47;100604.83;1791774;79;21661;-73
2021/06/02 00:12:17;;;;;;;5.65;1.80;;;;;;;11.61;57.16;100599.73;1782248;79;21084;-72
2021/06/02 00:14:43;;;;;;;5.22;2.30;;;;;;;11.60;57.20;100596.79;1788267;79;21128;-72
2021/06/02 00:17:12;;;;;;;4.35;2.00;;;;;;;11.59;57.25;100596.53;1786156;79;22207;-72
2021/06/02 00:19:41;;;;;;;4.37;2.08;;;;;;;11.59;57.28;100596.53;1795211;79;21080;-74
2021/06/02 00:22:08;;;;;;;5.17;2.12;;;;;;;11.56;57.32;100593.58;1782762;79;21798;-71
2021/06/02 00:24:38;;;;;;;4.40;2.00;;;;;;;11.56;57.48;100585.55;1791604;79;21057;-72
2021/06/02 00:27:08;;;;;;;4.87;2.15;;;;;;;11.51;57.42;100593.80;1796799;79;21502;-75
2021/06/02 00:29:37;;;;;;;3.13;1.83;;;;;;;11.50;57.27;100596.22;1786896;79;21113;-73
2021/06/02 00:32:06;;;;;;;2.77;1.80;;;;;;;11.50;57.45;100597.55;1788235;79;21371;-75
2021/06/02 00:34:33;;;;;;;3.10;2.00;;;;;;;11.49;57.37;100590.61;1788752;79;21297;-74
2021/06/02 00:37:02;;;;;;;4.87;2.20;;;;;;;11.51;57.53;100591.67;1785659;79;21139;-73
2021/06/02 00:39:29;;;;;;;3.47;1.70;;;;;;;11.48;57.50;100589.01;1782535;79;21478;-74
2021/06/02 00:41:56;;;;;;;5.10;2.15;;;;;;;11.48;57.51;100585.50;1781036;79;21119;-73
2021/06/02 00:44:23;;;;;;;4.43;1.83;;;;;;;11.47;57.54;100584.70;1790046;79;21119;-73
2021/06/02 00:46:51;;;;;;;4.15;2.17;;;;;;;11.49;57.54;100579.91;1763824;80;21844;-74
2021/06/02 00:49:23;;;;;;;4.87;1.73;;;;;;;11.49;57.47;100570.55;1787780;79;21099;-74
2021/06/02 00:52:00;;;;;;;4.58;2.10;;;;;;;11.49;57.45;100576.44;1782843;79;21367;-73
2021/06/02 00:54:34;;;;;;;4.83;1.90;;;;;;;11.49;57.33;100569.20;1785875;79;21016;-75
2021/06/02 00:57:20;;;;;;;5.03;2.00;;;;;;;11.49;57.24;100563.86;1709980;81;21593;-75
2021/06/02 00:59:57;;;;;;;4.58;1.90;;;;;;;11.50;57.23;100569.47;1784789;79;22225;-74
2021/06/02 01:02:23;;;;;;;5.12;2.10;;;;;;;11.51;57.17;100563.05;1786351;79;21120;-76
2021/06/02 01:04:52;;;;;;;5.15;2.40;;;;;;;11.53;57.03;100564.14;1786189;79;21088;-72
2021/06/02 01:07:26;;;;;;;4.10;1.80;;;;;;;11.54;57.21;100572.96;1786576;79;22527;-71
2021/06/02 01:09:58;;;;;;;3.70;1.70;;;;;;;11.56;57.22;100568.16;1774146;79;21056;-70
2021/06/02 01:12:27;;;;;;;4.78;2.10;;;;;;;11.57;57.10;100571.09;1782270;79;21153;-71
2021/06/02 01:14:55;;;;;;;6.33;2.43;;;;;;;11.55;57.10;100564.69;1782304;79;21191;-71
2021/06/02 01:17:25;;;;;;;6.17;2.37;;;;;;;11.55;57.31;100559.84;1791091;79;21277;-71
2021/06/02 01:19:57;;;;;;;4.40;2.00;;;;;;;11.55;57.31;100563.35;1792198;79;21077;-72
2021/06/02 01:22:33;;;;;;;5.12;2.17;;;;;;;11.54;57.40;100559.59;1779197;79;22013;-72
2021/06/02 01:24:57;;;;;;;4.25;2.08;;;;;;;11.54;57.59;100563.59;1784050;79;21584;-71
2021/06/02 01:27:24;;;;;;;4.05;2.20;;;;;;;11.52;57.60;100579.92;1790206;79;21061;-71
2021/06/02 01:29:52;;;;;;;4.30;2.20;;;;;;;11.50;57.68;100572.14;1783085;80;21666;-71
2021/06/02 01:33:05;;;;;;;4.05;2.30;;;;;;;11.48;57.70;100576.97;1782766;79;21756;-70
2021/06/02 01:36:05;;;;;;;4.13;2.03;;;;;;;11.47;57.87;100578.02;1789681;79;21191;-71
2021/06/02 01:39:07;;;;;;;5.90;2.67;;;;;;;11.46;57.88;100574.28;1792338;79;21690;-72
2021/06/02 01:42:10;;;;;;;5.55;2.33;;;;;;;11.44;57.94;100576.41;1774046;79;21016;-72
2021/06/02 01:45:05;;;;;;;4.47;2.33;;;;;;;11.43;58.15;100580.95;1783927;79;21674;-71
2021/06/02 01:48:18;;;;;;;8.15;2.40;;;;;;;11.41;58.20;100579.06;1781601;79;21815;-70
2021/06/02 01:51:05;;;;;;;6.20;2.08;;;;;;;11.38;58.24;100571.56;1792187;79;21131;-71
2021/06/02 01:54:12;;;;;;;5.75;2.45;;;;;;;11.37;58.40;100574.51;1777098;79;21115;-72
2021/06/02 01:57:09;;;;;;;4.62;2.27;;;;;;;11.34;58.54;100570.48;1789090;78;21515;-71
2021/06/02 02:00:11;;;;;;;5.12;2.30;;;;;;;11.32;58.61;100572.63;1772344;79;21143;-72
2021/06/02 02:03:04;;;;;;;4.92;2.00;;;;;;;11.28;58.81;100570.98;1788370;79;21107;-72
2021/06/02 02:06:25;;;;;;;5.70;2.22;;;;;;;11.26;58.92;100581.69;1782368;79;21136;-71
2021/06/02 02:09:00;;;;;;;5.80;2.20;;;;;;;11.20;58.98;100584.86;1781639;79;21675;-70
2021/06/02 02:11:35;;;;;;;7.12;3.00;;;;;;;11.19;59.13;100581.12;1789388;79;21293;-71
2021/06/02 02:14:41;;;;;;;4.83;2.30;;;;;;;11.17;58.98;100577.36;1800525;79;21080;-71
2021/06/02 02:17:48;;;;;;;3.87;2.25;;;;;;;11.18;59.11;100576.83;1788038;79;21465;-72
2021/06/02 02:20:39;;;;;;;5.60;2.40;;;;;;;11.18;59.21;100579.50;1785890;79;21132;-72
2021/06/02 02:23:27;;;;;;;4.17;2.42;;;;;;;11.18;59.13;100559.45;1794784;79;21599;-71
2021/06/02 02:26:08;;;;;;;3.85;2.15;;;;;;;11.19;59.13;100568.56;1750739;80;21093;-72
2021/06/02 02:28:54;;;;;;;;;;;;;;;11.20;59.19;100570.70;1785135;79;22035;-72
2021/06/02 02:31:49;;;;;;;5.42;2.52;;;;;;;11.20;59.18;100566.69;1784345;79;21089;-72
2021/06/02 02:34:45;;;;;;;3.33;2.22;;;;;;;11.20;59.27;100578.18;1782721;79;21138;-71
2021/06/02 02:37:39;;;;;;;4.47;2.20;;;;;;;11.20;59.19;100574.17;1780030;79;21492;-71
2021/06/02 02:40:14;;;;;;;4.17;2.22;;;;;;;11.20;59.25;100585.40;1768377;79;21596;-72
2021/06/02 02:42:57;;;;;;;4.30;1.82;;;;;;;11.20;59.14;100582.73;1773275;79;21068;-73
2021/06/02 02:45:46;;;;;;;6.17;2.45;;;;;;;11.21;59.26;100583.79;1783238;79;21705;-71
2021/06/02 02:48:45;;;;;;;4.03;2.40;;;;;;;11.22;59.42;100591.27;1785019;79;21080;-71
2021/06/02 02:51:29;;;;;;;6.22;2.58;;;;;;;11.22;59.51;100590.77;1781299;79;21088;-72
2021/06/02 02:54:06;;;;;;;4.85;2.22;;;;;;;11.23;59.50;100600.92;1789701;79;21073;-72
2021/06/02 02:57:05;;;;;;;5.47;2.45;;;;;;;11.21;59.62;100602.50;1792537;79;21021;-72
2021/06/02 02:59:46;;;;;;;4.65;1.80;;;;;;;11.22;59.52;100603.30;1803442;79;21603;-72
2021/06/02 03:02:57;;;;;;;4.47;2.08;;;;;;;11.22;59.68;100604.64;1791739;79;21021;-70
2021/06/02 03:05:30;;;;;;;4.45;2.33;;;;;;;11.20;59.55;100596.89;1800831;79;21048;-72
2021/06/02 03:08:12;;;;;;;5.12;2.15;;;;;;;11.19;59.66;100598.51;1791485;79;21092;-72
2021/06/02 03:10:55;;;;;;;6.00;2.12;;;;;;;11.21;59.44;100603.84;1778754;79;21093;-71
2021/06/02 03:14:04;;;;;;;4.25;1.90;;;;;;;11.21;59.48;100607.05;1772509;79;21344;-70
2021/06/02 03:16:37;;;;;;;5.55;2.20;;;;;;;11.22;59.84;100601.46;1781565;79;21128;-71
2021/06/02 03:19:12;;;;;;;6.28;2.58;;;;;;;11.24;59.78;100612.68;1792308;79;21021;-71
2021/06/02 03:22:02;;;;;;;4.65;2.12;;;;;;;11.24;59.69;100614.02;1787475;79;21148;-71
2021/06/02 03:25:07;;;;;;;4.30;2.20;;;;;;;11.27;59.62;100620.72;1793849;79;21105;-71
2021/06/02 03:27:50;;;;;;;3.45;2.22;;;;;;;11.27;59.61;100607.36;1791004;79;21107;-73
2021/06/02 03:30:37;;;;;;;4.17;2.45;;;;;;;11.27;59.56;100617.52;1750739;80;21151;-72
2021/06/02 03:33:18;;;;;;;4.55;2.08;;;;;;;11.26;59.63;100616.45;1783710;79;20949;-72
2021/06/02 03:36:09;;;;;;;4.42;2.30;;;;;;;11.27;59.82;100610.83;1783090;79;21737;-72
2021/06/02 03:39:09;;;;;;;5.55;2.62;;;;;;;11.26;59.52;100617.78;1796290;79;21020;-72
2021/06/02 03:42:04;;;;;;;6.73;2.23;;;;;;;11.23;59.64;100604.40;1780391;79;21128;-71
2021/06/02 03:44:39;;;;;;;4.00;2.20;;;;;;;11.23;59.80;100603.59;1785338;79;21708;-72
2021/06/02 03:47:37;;;;;;;3.47;2.22;;;;;;;11.23;59.96;100603.06;1778047;79;21408;-71
2021/06/02 03:50:18;;;;;;;4.03;2.08;;;;;;;11.24;60.02;100604.66;1777782;79;21136;-71
2021/06/02 03:53:06;;;;;;;4.50;2.42;;;;;;;11.23;60.17;100604.94;1781801;79;21021;-71
2021/06/02 03:55:55;;;;;;;6.00;2.55;;;;;;;11.23;60.17;100601.72;1715109;80;21114;-72
2021/06/02 03:58:42;;;;;;;5.93;2.40;;;;;;;11.23;60.11;100595.04;1739396;81;21143;-71
2021/06/02 04:01:46;;;;;;;3.55;2.20;;;;;;;11.24;60.29;100599.85;1762412;80;21293;-71
2021/06/02 04:04:34;;;;;;;7.25;2.30;;;;;;;11.24;60.36;100597.98;1779549;79;21703;-70
2021/06/02 04:07:12;;;;;;;5.70;2.27;;;;;;;11.24;60.33;100605.20;1771749;79;21105;-72
2021/06/02 04:10:09;;;;;;;4.10;2.35;;;;;;;11.23;60.32;100599.05;1784988;79;21109;-73
2021/06/02 04:12:59;;;;;;;4.25;2.30;;;;;;;11.24;60.38;100597.98;1792653;79;21089;-71
2021/06/02 04:15:26;;;;;;;5.70;2.90;;;;;;;11.26;60.45;100604.42;1785148;79;21197;-71
2021/06/02 04:17:53;;;;;;;5.35;2.30;;;;;;;11.27;60.43;100603.34;1787672;79;21097;-71
2021/06/02 04:20:20;;;;;;;6.20;2.25;;;;;;;11.31;60.51;100590.25;1784618;79;21005;-71
2021/06/02 04:22:49;;;;;;;5.58;2.40;;;;;;;11.34;60.56;100586.52;1791422;79;21083;-72
2021/06/02 04:25:18;;;;;;;5.10;2.35;;;;;;;11.37;60.38;100583.33;1796840;79;21005;-71
2021/06/02 04:27:47;;;;;;;4.90;2.33;;;;;;;11.40;60.24;100574.79;1784702;78;21845;-71
2021/06/02 04:30:16;;;;;;;4.25;2.37;;;;;;;11.44;60.07;100577.73;1785165;79;21665;-72
2021/06/02 04:32:48;;;;;;;5.05;2.40;;;;;;;11.46;60.22;100589.80;1780744;79;21618;-71
2021/06/02 04:35:18;;;;;;;3.77;2.13;;;;;;;11.49;60.27;100591.95;1786050;79;21275;-71
2021/06/02 04:37:47;;;;;;;5.73;2.50;;;;;;;11.51;60.21;100596.48;1782839;79;22097;-71
2021/06/02 04:40:15;;;;;;;5.30;2.10;;;;;;;11.54;60.55;100600.51;1790399;79;21567;-71
2021/06/02 04:42:41;;;;;;;4.43;2.33;;;;;;;11.55;60.82;100594.62;1777215;80;21375;-72
2021/06/02 04:45:19;;;;;;;4.57;2.23;;;;;;;11.53;61.12;100607.47;1793503;78;22245;-70
2021/06/02 04:47:47;;;;;;;4.77;2.30;;;;;;;11.48;61.80;100594.36;1777978;79;21588;-71
2021/06/02 04:50:23;;;;;;;4.78;2.40;;;;;;;11.43;62.42;100604.22;1793315;79;21342;-71
2021/06/02 04:53:39;;;;;;;4.95;2.70;;;;;;;11.39;63.11;100610.63;1766585;79;21554;-71
2021/06/02 04:56:40;;;;;;;4.50;2.33;;;;;;;11.34;63.57;100612.47;1776688;79;21107;-71
2021/06/02 04:59:27;;;;;;;5.60;2.58;;;;;;;11.28;64.41;100608.95;1783821;79;21100;-72
2021/06/02 05:02:11;;;;;;;4.65;2.30;;;;;;;11.28;64.87;100611.62;1753956;81;21888;-70
2021/06/02 05:05:24;;;;;;;6.15;2.90;;;;;;;11.28;65.20;100613.77;1763628;79;21104;-71
2021/06/02 05:08:47;;;;;;;7.00;2.70;;;;;;;11.30;65.57;100620.20;1782430;79;21625;-71
2021/06/02 05:12:10;;;;;;;5.65;2.90;;;;;;;11.34;66.00;100618.61;1795518;79;21622;-71
2021/06/02 05:14:51;;;;;;;4.37;2.70;;;;;;;11.40;65.62;100620.25;1781814;79;20949;-70
2021/06/02 05:17:45;;;;;;;4.80;2.72;;;;;;;11.48;64.95;100609.07;1793058;78;22076;-70
2021/06/02 05:24:30;;;;;;;4.33;2.20;;;;;;;11.63;64.81;100597.61;1795460;79;21211;-71
2021/06/02 05:27:19;;;;;;;5.45;2.45;;;;;;;11.71;64.04;100606.98;1711321;83;21664;-72
2021/06/02 05:30:27;;;;;;;4.17;2.30;;;;;;;11.75;63.94;100613.44;1709029;82;22301;-71
2021/06/02 05:33:25;;;;;;;3.40;2.13;;;;;;;11.77;63.62;100619.31;1780915;78;21515;-72
2021/06/02 05:36:07;;;;;;;5.62;2.58;;;;;;;11.78;63.04;100610.24;1805010;78;21365;-71
2021/06/02 05:39:01;;;;;;;5.08;2.10;;;;;;;11.80;63.20;100613.44;1808568;78;21593;-71
2021/06/02 05:41:57;;;;;;;5.87;2.20;;;;;;;11.82;63.09;100613.99;1746169;78;21036;-70
2021/06/02 05:44:55;;;;;;;4.30;2.40;;;;;;;11.85;63.10;100613.50;1798046;78;21272;-71
2021/06/02 05:48:05;;;;;;;5.23;3.00;;;;;;;11.86;62.54;100607.61;1796582;78;22715;-72
2021/06/02 05:51:16;;;;;;;3.37;2.23;;;;;;;11.87;62.46;100604.65;1771669;80;21458;-71
2021/06/02 05:54:39;;;;;;;4.27;2.37;;;;;;;11.88;62.55;100611.63;1771952;80;21333;-70
2021/06/02 05:57:51;;;;;;;6.37;2.55;;;;;;;11.91;62.45;100619.14;1749157;80;21258;-72
2021/06/02 06:00:41;;;;;;;7.22;2.45;;;;;;;11.94;62.58;100625.30;1788871;78;21083;-72
2021/06/02 06:03:40;;;;;;;4.33;2.50;;;;;;;11.96;62.17;100626.36;1757879;80;21115;-71
2021/06/02 06:06:35;;;;;;;3.77;2.37;;;;;;;11.94;62.18;100627.98;1814989;79;21842;-70
2021/06/02 06:09:48;;;;;;;3.97;2.20;;;;;;;11.95;62.19;100608.70;1798103;77;22037;-71
2021/06/02 06:13:05;;;;;;;6.00;2.73;;;;;;;11.94;62.06;100621.29;1795981;78;21419;-70
2021/06/02 06:16:06;;;;;;;5.17;2.33;;;;;;;11.93;61.89;100633.58;1729815;80;21831;-71
2021/06/02 06:19:09;;;;;;;4.78;2.50;;;;;;;11.92;61.50;100618.06;1744928;80;22953;-71
2021/06/02 06:22:19;;;;;;;5.73;2.53;;;;;;;11.94;61.52;100620.45;1767411;79;21184;-71
2021/06/02 06:25:05;;;;;;;5.20;2.40;;;;;;;11.97;61.59;100619.39;1767823;80;21826;-71
2021/06/02 06:27:46;;;;;;;3.93;2.17;;;;;;;12.03;61.58;100609.51;1767593;80;21801;-72
2021/06/02 06:30:23;;;;;;;3.07;2.20;;;;;;;12.10;61.20;100613.27;1742220;80;21163;-72
2021/06/02 06:32:56;;;;;;;5.67;2.17;;;;;;;12.14;60.99;100614.34;1754179;80;21580;-71
2021/06/02 06:35:24;;;;;;;7.10;2.27;;;;;;;12.19;60.93;100613.02;1767656;80;21146;-71
2021/06/02 06:37:52;;;;;;;6.07;2.20;;;;;;;12.24;60.89;100610.36;1774933;80;21344;-72
2021/06/02 06:40:28;;;;;;;3.87;2.07;;;;;;;12.30;60.91;100619.98;1777689;79;21418;-71
2021/06/02 06:43:00;;;;;;;3.57;1.73;;;;;;;12.39;60.90;100616.25;1750879;80;21416;-71
2021/06/02 06:45:35;;;;;;;7.00;2.50;;;;;;;12.47;60.74;100626.95;1754293;81;21953;-70
2021/06/02 06:48:21;;;;;;;3.50;2.20;;;;;;;12.50;60.45;100617.05;1781259;80;21670;-72
2021/06/02 06:50:49;;;;;;;5.63;2.43;;;;;;;12.54;60.03;100614.13;1785106;79;21786;-73
2021/06/02 06:53:16;;;;;;;5.97;2.40;;;;;;;12.55;59.89;100606.34;1777493;79;21420;-72
2021/06/02 06:55:45;;;;;;;3.27;2.00;;;;;;;12.55;60.01;100609.02;1774420;79;21317;-72
2021/06/02 06:58:11;;;;;;;4.23;1.97;;;;;;;12.57;59.95;100605.01;1763565;80;21476;-72
2021/06/02 07:00:39;;;;;;;5.03;2.07;;;;;;;12.59;59.70;100609.55;1739621;81;22078;-72
2021/06/02 07:03:07;;;;;;;4.30;2.00;;;;;;;12.65;59.46;100605.80;1748837;80;21881;-71
2021/06/02 07:05:34;;;;;;;7.63;2.37;;;;;;;12.77;59.55;100600.17;1745534;80;21333;-71
2021/06/02 07:08:02;;;;;;;5.80;2.30;;;;;;;12.93;59.45;100598.78;1766635;79;21295;-70
2021/06/02 07:10:29;;;;;;;5.27;2.20;;;;;;;13.11;59.41;100595.53;1742173;80;22775;-71
2021/06/02 07:12:56;;;;;;;4.60;2.03;;;;;;;13.27;58.28;100603.03;1752766;80;21434;-71
2021/06/02 07:16:11;;;;;;;4.60;2.10;;;;;;;13.49;57.90;100599.97;1770514;79;23225;-72
2021/06/02 07:18:41;;;;;;;3.63;2.00;;;;;;;13.54;57.56;100599.97;1747256;81;21070;-72
2021/06/02 07:21:09;;;;;;;4.63;1.80;;;;;;;13.61;57.32;100596.44;1745781;81;21842;-74
2021/06/02 07:23:40;;;;;;;3.87;1.77;;;;;;;13.67;57.38;100595.88;1657859;84;21187;-73
2021/06/02 07:26:07;;;;;;;3.47;2.00;;;;;;;13.72;57.34;100603.37;1694573;83;21402;-70
2021/06/02 07:28:39;;;;;;;4.10;2.10;;;;;;;13.76;56.68;100599.05;1707048;83;21322;-71
2021/06/02 07:31:07;;;;;;;5.33;2.17;;;;;;;13.81;56.92;100604.38;1702699;82;21363;-73
2021/06/02 07:33:36;;;;;;;5.50;2.00;;;;;;;13.87;56.97;100599.80;1699037;83;21672;-72
2021/06/02 07:36:08;;;;;;;4.10;2.30;;;;;;;13.94;56.43;100603.51;1704479;83;21823;-73
2021/06/02 07:38:35;;;;;;;3.67;1.90;;;;;;;13.99;56.60;100608.86;1685537;83;21326;-72
2021/06/02 07:41:03;;;;;;;5.03;1.70;;;;;;;14.06;56.54;100606.66;1681437;82;21221;-71
2021/06/02 07:43:30;;;;;;;6.00;2.10;;;;;;;14.23;55.62;100608.96;1695403;83;21425;-71
2021/06/02 07:45:57;;;;;;;5.80;2.17;;;;;;;14.23;55.62;100608.96;1685199;84;21490;-73
2021/06/02 07:48:24;;;;;;;4.47;1.97;;;;;;;14.30;55.97;100602.72;1694920;84;22717;-73
2021/06/02 07:50:51;;;;;;;4.67;2.10;;;;;;;14.33;55.13;100610.23;1681981;84;21486;-73
2021/06/02 07:53:18;;;;;;;6.13;1.90;;;;;;;14.28;54.75;100605.70;1691602;82;21623;-73
2021/06/02 07:55:46;;;;;;;3.43;1.90;;;;;;;14.27;55.07;100610.00;1688007;84;21547;-73
2021/06/02 07:58:13;;;;;;;3.80;2.10;;;;;;;14.27;55.07;100610.00;1685602;84;21449;-73
2021/06/02 08:00:40;;;;;;;5.07;2.10;;;;;;;14.22;54.77;100616.77;1672290;83;21437;-71
2021/06/02 08:03:09;;;;;;;5.37;1.90;;;;;;;14.23;55.78;100625.08;1671577;85;21532;-73
2021/06/02 08:05:36;;;;;;;4.93;2.20;;;;;;;14.23;55.78;100625.08;1666776;85;21620;-72
2021/06/02 08:08:03;;;;;;;4.93;1.90;;;;;;;14.23;55.79;100618.36;1667567;85;21468;-72
2021/06/02 08:10:30;;;;;;;4.60;1.97;;;;;;;14.17;55.92;100633.70;1662536;86;21536;-71
2021/06/02 08:12:58;;;;;;;6.53;2.10;;;;;;;14.11;55.15;100611.19;1652124;85;21620;-71
2021/06/02 08:15:26;;;;;;;5.70;2.00;;;;;;;14.11;55.15;100611.19;1670569;84;21543;-71
2021/06/02 08:17:53;;;;;;;3.23;1.80;;;;;;;14.04;55.19;100630.30;1693172;83;21511;-71
2021/06/02 08:20:22;;;;;;;3.33;1.70;;;;;;;13.98;55.19;100611.27;1692897;83;21587;-71
2021/06/02 08:22:50;;;;;;;6.43;2.03;;;;;;;13.95;55.21;100623.91;1692742;83;21675;-72
2021/06/02 08:25:17;;;;;;;6.17;1.90;;;;;;;13.95;55.21;100623.91;1691957;83;21469;-72
2021/06/02 08:27:46;;;;;;;4.37;2.10;;;;;;;13.98;55.78;100622.00;1695277;84;21353;-72
2021/06/02 08:30:14;;;;;;;4.07;1.80;;;;;;;13.98;55.78;100622.00;1698432;84;21451;-72
2021/06/02 08:32:41;;;;;;;6.30;1.97;;;;;;;14.02;56.03;100625.77;1693587;83;22530;-71
2021/06/02 08:35:10;;;;;;;3.87;1.63;;;;;;;14.10;55.84;100621.13;1695326;84;21779;-71
2021/06/02 08:37:36;;;;;;;4.17;1.90;;;;;;;14.16;55.56;100634.00;1694637;84;21441;-72
2021/06/02 08:40:06;;;;;;;5.80;2.07;;;;;;;14.21;55.75;100629.92;1698563;83;21472;-73
2021/06/02 08:42:33;;;;;;;4.80;1.87;;;;;;;14.24;55.78;100633.39;1694274;82;21625;-74
2021/06/02 08:45:00;;;;;;;3.77;1.57;;;;;;;14.24;55.78;100633.39;1696327;84;21396;-72
2021/06/02 08:47:26;;;;;;;4.10;2.00;;;;;;;14.30;54.93;100634.42;1686013;84;21367;-73
2021/06/02 08:49:53;;;;;;;4.30;1.80;;;;;;;14.33;55.13;100629.03;1695130;84;21917;-74
2021/06/02 08:52:20;;;;;;;5.17;2.00;;;;;;;14.37;55.23;100619.33;1691739;83;21389;-72
2021/06/02 08:54:47;;;;;;;6.60;2.20;;;;;;;14.42;54.94;100637.31;1694091;83;21494;-73
2021/06/02 08:57:13;;;;;;;4.83;2.03;;;;;;;14.45;55.06;100632.72;1666234;84;22129;-72
2021/06/02 08:59:40;;;;;;;3.13;2.00;;;;;;;14.52;55.42;100631.34;1668139;84;21581;-73
2021/06/02 09:02:11;;;;;;;4.83;2.27;;;;;;;14.65;55.30;100639.30;1678633;83;21557;-72
2021/06/02 09:04:40;;;;;;;2.87;1.80;;;;;;;14.91;53.96;100624.29;1692414;83;21605;-71
2021/06/02 09:07:07;;;;;;;3.83;1.97;;;;;;;15.03;53.56;100629.27;1695601;84;21704;-72
2021/06/02 09:09:34;;;;;;;5.10;1.60;;;;;;;15.03;53.56;100629.27;1691719;84;22297;-71
2021/06/02 09:12:10;;;;;;;3.40;1.63;;;;;;;15.09;53.11;100629.47;1687380;83;21648;-71
2021/06/02 09:14:38;;;;;;;3.17;1.87;;;;;;;15.14;52.58;100626.20;1693435;84;22203;-71
2021/06/02 09:17:13;;;;;;;3.10;1.40;;;;;;;15.29;51.32;100610.96;1691193;84;21777;-71
2021/06/02 09:19:49;;;;;;;4.00;1.90;;;;;;;15.29;51.32;100610.96;1695747;83;22144;-71
2021/06/02 09:22:21;;;;;;;4.67;1.60;;;;;;;15.27;51.59;100622.55;1690849;82;22177;-70
2021/06/02 09:24:58;;;;;;;7.28;1.95;;;;;;;15.22;52.26;100635.52;1692011;84;21774;-73
2021/06/02 09:27:46;;;;;;;6.03;1.60;;;;;;;15.25;52.31;100635.75;1694456;84;21531;-71
2021/06/02 09:30:25;;;;;;;2.90;1.73;;;;;;;15.23;51.92;100627.18;1695040;84;21734;-72
2021/06/02 09:32:58;;;;;;;3.13;1.67;;;;;;;15.20;52.26;100624.23;1679987;84;21742;-71
2021/06/02 09:35:41;;;;;;;;;;;;;;;15.17;52.66;100635.05;1692090;84;22618;-71
2021/06/02 09:38:09;;;;;;;;;;;;;;;15.20;52.48;100631.78;1698362;83;21126;-72
2021/06/02 09:40:39;;;;;;;4.13;2.10;;;;;;;15.22;52.78;100639.01;1691761;83;20492;-72
2021/06/02 09:43:06;;;;;;;3.30;2.03;;;;;;;15.25;52.71;100635.75;1693575;83;21741;-71
2021/06/02 09:45:34;;;;;;;4.20;1.90;;;;;;;15.27;52.09;100639.52;1699364;84;21752;-72
2021/06/02 09:48:04;;;;;;;4.80;1.90;;;;;;;15.27;52.45;100637.34;1692583;84;22281;-72
2021/06/02 09:50:36;;;;;;;5.07;2.10;;;;;;;15.32;52.53;100637.30;1690758;84;21780;-72
2021/06/02 09:53:08;;;;;;;6.20;1.80;;;;;;;15.39;52.56;100631.82;1690129;83;22328;-71
2021/06/02 09:55:38;;;;;;;5.87;1.85;;;;;;;15.49;52.16;100630.34;1686654;83;21733;-73
2021/06/02 09:58:12;;;;;;;4.50;1.80;;;;;;;15.56;51.95;100630.00;1694720;84;21068;-71
2021/06/02 10:00:44;;;;;;;3.73;1.60;;;;;;;15.62;51.76;100634.23;1686964;83;21784;-71
2021/06/02 10:03:18;;;;;;;3.65;1.80;;;;;;;15.67;51.55;100639.59;1690677;83;21765;-71
2021/06/02 10:05:48;;;;;;;4.73;1.70;;;;;;;15.70;51.66;100640.37;1696235;84;21576;-72
2021/06/02 10:08:35;;;;;;;3.77;1.77;;;;;;;15.74;51.50;100643.28;1690106;84;22303;-74
2021/06/02 10:11:20;;;;;;;3.27;1.60;;;;;;;15.79;52.12;100647.80;1693112;83;22113;-73
2021/06/02 10:13:52;;;;;;;4.77;1.70;;;;;;;15.89;51.46;100645.79;1692231;82;21832;-73
2021/06/02 10:16:35;;;;;;;5.55;1.60;;;;;;;16.01;51.17;100636.45;1699615;84;21829;-75
2021/06/02 10:19:04;;;;;;;3.67;1.60;;;;;;;16.10;50.21;100644.15;1698445;84;21044;-74
2021/06/02 10:21:50;;;;;;;5.50;1.60;;;;;;;16.10;50.21;100644.15;1693749;84;20997;-72
2021/06/02 10:24:18;;;;;;;3.93;1.50;;;;;;;16.13;49.19;100621.46;1695011;82;22407;-73
2021/06/02 10:26:46;;;;;;;5.13;1.70;;;;;;;16.14;49.35;100639.22;1698066;84;21765;-73
2021/06/02 10:29:14;;;;;;;4.97;1.70;;;;;;;16.16;49.30;100649.17;1679844;84;21130;-72
2021/06/02 10:31:42;;;;;;;3.23;1.40;;;;;;;16.25;49.62;100641.77;1699195;84;21158;-72
2021/06/02 10:34:09;;;;;;;3.53;1.40;;;;;;;16.37;49.50;100646.17;1693035;82;21096;-70
2021/06/02 10:36:36;;;;;;;3.13;1.30;;;;;;;16.51;49.30;100645.66;1694451;83;21040;-71
2021/06/02 10:39:07;;;;;;;3.70;1.43;;;;;;;16.63;49.03;100654.66;1689222;84;21024;-71
2021/06/02 10:41:54;;;;;;;4.13;1.40;;;;;;;16.74;48.53;100642.59;1690618;84;21782;-74
2021/06/02 10:44:30;;;;;;;3.07;1.60;;;;;;;16.81;48.18;100649.80;1694613;83;21151;-73
2021/06/02 10:46:58;;;;;;;2.40;1.30;;;;;;;16.86;48.28;100651.05;1688044;84;21123;-72
2021/06/02 10:49:27;;;;;;;4.63;1.57;;;;;;;16.96;48.44;100660.06;1695128;84;21067;-71
2021/06/02 10:51:56;;;;;;;4.00;1.50;;;;;;;17.00;47.75;100651.06;1696185;83;20985;-71
2021/06/02 10:54:35;;;;;;;3.73;1.43;;;;;;;17.02;47.85;100650.23;1693762;83;21135;-72
2021/06/02 10:57:07;;;;;;;5.50;1.90;;;;;;;17.06;47.96;100647.73;1690249;83;21218;-71
2021/06/02 10:59:45;;;;;;;4.73;1.57;;;;;;;17.08;47.81;100656.34;1688415;84;21103;-73
2021/06/02 11:02:30;;;;;;;3.77;1.60;;;;;;;17.10;48.24;100649.53;1681398;84;21136;-72
2021/06/02 11:05:06;;;;;;;3.27;1.40;;;;;;;17.15;47.30;100653.25;1697023;83;21057;-72
2021/06/02 11:07:33;;;;;;;3.57;1.53;;;;;;;17.15;47.01;100656.75;1689384;84;21151;-71
2021/06/02 11:10:13;;;;;;;5.57;1.87;;;;;;;17.17;45.92;100646.98;1694786;84;21263;-72
2021/06/02 11:12:57;;;;;;;4.10;1.40;;;;;;;17.19;45.69;100652.90;1695181;83;21064;-72
2021/06/02 11:15:36;;;;;;;3.40;1.53;;;;;;;17.17;45.57;100649.13;1692736;83;21057;-71
2021/06/02 11:18:18;;;;;;;4.93;1.70;;;;;;;17.19;45.74;100650.20;1694157;84;22215;-72
2021/06/02 11:20:50;;;;;;;4.12;1.45;;;;;;;17.16;44.81;100648.89;1692359;83;21155;-72
2021/06/02 11:23:20;;;;;;;4.83;1.60;;;;;;;17.16;44.95;100650.80;1684996;84;21147;-72
2021/06/02 11:25:49;;;;;;;3.62;1.50;;;;;;;17.19;44.94;100661.80;1697568;83;21084;-72
2021/06/02 11:28:45;;;;;;;3.90;1.57;;;;;;;17.25;44.41;100662.51;1699048;84;21685;-73
2021/06/02 11:31:26;;;;;;;3.50;1.63;;;;;;;17.30;44.41;100657.00;1694987;83;21017;-72
2021/06/02 11:33:55;;;;;;;2.15;1.40;;;;;;;17.39;44.07;100648.45;1685537;84;21560;-71
2021/06/02 11:36:22;;;;;;;4.53;1.50;;;;;;;17.43;43.92;100644.60;1679499;83;21012;-72
2021/06/02 11:38:49;;;;;;;5.97;1.53;;;;;;;17.49;44.54;100646.10;1694968;84;21532;-71
2021/06/02 11:41:16;;;;;;;4.03;1.43;;;;;;;17.58;44.59;100649.15;1691325;84;21111;-72
2021/06/02 11:43:44;;;;;;;3.63;1.67;;;;;;;17.67;44.48;100647.90;1704791;84;21563;-72
2021/06/02 11:46:11;;;;;;;4.27;1.70;;;;;;;17.73;43.98;100650.72;1697021;82;21147;-72
2021/06/02 11:48:39;;;;;;;3.90;1.37;;;;;;;17.75;44.12;100649.88;1698396;84;21060;-71
2021/06/02 11:51:08;;;;;;;2.57;1.20;;;;;;;17.79;44.03;100654.95;1690832;83;21652;-72
2021/06/02 11:53:38;;;;;;;4.83;1.60;;;;;;;17.85;44.25;100654.85;1700948;83;21765;-72
2021/06/02 11:56:05;;;;;;;5.77;1.70;;;;;;;17.91;43.92;100657.14;1696720;83;21001;-71
2021/06/02 11:58:32;;;;;;;6.50;1.90;;;;;;;17.94;43.50;100658.44;1703947;83;21505;-72
2021/06/02 12:00:59;;;;;;;6.63;1.87;;;;;;;17.98;43.79;100652.11;1689988;84;20982;-72
2021/06/02 12:03:26;;;;;;;4.70;1.63;;;;;;;17.98;43.99;100654.81;1687858;84;21036;-73
2021/06/02 12:05:53;;;;;;;3.67;1.70;;;;;;;18.02;43.36;100650.39;1696688;82;21582;-72
2021/06/02 12:08:21;;;;;;;4.07;1.50;;;;;;;18.04;43.51;100650.91;1701788;82;21006;-72
2021/06/02 12:10:53;;;;;;;5.43;1.80;;;;;;;18.07;43.85;100652.76;1683780;84;21141;-72
2021/06/02 12:13:33;;;;;;;4.80;1.67;;;;;;;18.08;43.12;100659.75;1708033;83;21021;-72
2021/06/02 12:16:03;;;;;;;3.97;1.57;;;;;;;18.09;43.33;100642.42;1699134;83;21044;-72
2021/06/02 12:18:45;;;;;;;2.97;1.40;;;;;;;18.06;42.84;100654.64;1699549;84;21060;-71
2021/06/02 12:21:26;;;;;;;6.43;2.07;;;;;;;18.02;42.76;100654.45;1700556;84;21685;-71
2021/06/02 12:24:04;;;;;;;3.37;1.50;;;;;;;17.95;42.90;100646.52;1693328;83;20989;-72